Airfield :
LOGIN :

Register | Disclaimer

   EN    FR    IT 

 










Legend :    VFR   Marginal VFR   IFR   Intensive IFR   Very Intensive IFR
Visi :
Ceiling :
>= 8 km
>= 3000ft
5 to 8 km
1000 to 3000 ft
1500m to 5 km
500 to 1000 ft
800 to 1500m
200 to 500 ft
< 800m
< 200 ft
Symbols :   Thunderstorms  Fog  Heavy snow  Heavy precipitations  Wind > 20 kt
SIGMETs :     Misc.  Thunderstorms  Icing  Turbulence  Mountain Waves  Volcanic Ashes







- Airport Elevation : 65 ft
- IATA code : PIK
- Download approach charts


EGPK - Glasgow Prestwick

CURRENT METAR :
  • 220250Z 26015KT 9999 FEW014 SCT030 10/06 Q1012

EXPIRED METARs :
  • 220150Z 26017KT 9999 FEW030 10/05 Q1012
  • 220050Z 26015G26KT 9999 FEW030 10/06 Q1012
  • 212350Z 26016KT 9999 FEW030 10/06 Q1012

TAF TAF EGPK
Valid from the 22 at 00:00 until the 23 at 00:00 UTC


212259Z 2200/2224 27012KT 9999 FEW030
TEMPO 2200/2206 28018G28KT
PROB40
TEMPO 2200/2215 7000 SHRA
No reported NOTAMs for that airfield.
2 SIGMETs reported for the Scottish FIR (EGPX) :
 
Severe turbulence
EGPX SIGMET 06 VALID 212300/220300 EGRR
EGPX SCOTTISH FIR SEV TURB FCST WI N5500 W00530 - N5355 W00530 - N5425 W00810 - N5520 W00655 - N5520 W00815 - N5445 W00900 - N5456 W01000 - N5656 W01000 - N5500 W00122 - N5500 W00530 FL200/380 MOV NE 20KT NC=
Severe turbulence
EGPX SIGMET 01 VALID 220300/220600 EGRR
EGPX SCOTTISH FIR SEV TURB FCST WI N5625 W01000 - N5800 W01000 - N5500 E00019 - N5500 W00525 - N5625 W01000 FL200/380 MOV NE 25KT NC=



MET'MAP, your aeronautical weather chart ! - Copyright ORBIFLY December 2007 - Disclaimer

ORBIFLY MET'MAP TEAM :

Programming & Development : Alexandra Zaïnal
Concept & Development : Baudouin d'Aumeries
Co-Development & Prog : Marc-Olivier Méhu
Technical & hardware support : Manuel Goepfert

Contact : metmap@orbifly.com




SOURCES & CREDITS :

   NOAA